Latest Coastal Weather Observations for Middle Percy Island

IDQ60701

Issued at 8:21 pm EST Friday 24 February 2017 (issued every 10 minutes, with the page automatically refreshed every 10 minutes)

About coastal observations | Map of coastal stations | Coastal observations for QLD | Marine services | Other Formats
Station Details ID: 200001 Name: MIDDLE PERCY ISLAND Lat: -21.66 Lon: 150.27 Height: 208.7 m
Data from the previous 72 hours. | See also: Recent months at Middle Percy Island
Date/Time
EST
Temp
°C
Wind Pressure Rain since
9am
mm
Weather Cloud Vis
km
Sea
Height
m
Swell
Dir  Spd
kts
Gust
kts
hPa Trend Height
m
Period
s
Dir
24/08:00pm 25.6 ESE 6 13 1013.7 - 0.4 - - - - - - -
24/07:30pm 25.7 ESE 10 15 1013.7 - 0.4 - - - - - - -
24/07:00pm 25.6 ESE 11 16 1013.4 - 0.4 - - - - - - -
24/06:30pm 25.8 ESE 13 19 1013.2 - 0.4 - - - - - - -
24/06:00pm 25.9 ESE 10 15 1012.8 - 0.4 - - - - - - -
24/05:30pm 25.4 SE 10 13 1012.7 - 0.4 - - - - - - -
24/05:00pm 25.4 ESE 8 12 1012.7 - 0.4 - - - - - - -
24/04:30pm 25.5 ESE 8 14 1012.6 - 0.4 - - - - - - -
24/04:00pm 24.4 ESE 8 12 1012.8 - 0.4 - - - - - - -
24/03:30pm 24.3 SE 12 19 1012.9 - 0.2 - - - - - - -
24/03:00pm 27.2 SE 12 17 1012.7 - 0.0 - - - - - - -
24/02:30pm 27.5 SSE 13 19 1012.7 - 0.0 - - - - - - -
24/02:00pm 28.6 SE 12 16 1013.3 - 0.0 - - - - - - -
24/01:30pm 28.4 SE 11 16 1013.4 - 0.0 - - - - - - -
24/01:00pm 28.6 SE 11 15 1013.7 - 0.0 - - - - - - -
24/12:30pm 28.5 SE 12 15 1014.0 - 0.0 - - - - - - -
24/12:00pm 28.7 SE 11 15 1014.4 - 0.0 - - - - - - -
24/11:30am 28.5 SE 12 16 1014.6 - 0.0 - - - - - - -
24/11:00am 28.4 SE 11 15 1014.9 - 0.0 - - - - - - -
24/10:30am 27.6 SE 10 14 1015.0 - 0.0 - - - - - - -
24/10:00am 27.8 SE 11 16 1014.9 - 0.0 - - - - - - -
24/09:30am 27.1 SE 11 16 1014.9 - 0.0 - - - - - - -
24/09:00am 26.7 SE 13 17 1015.0 - 1.6 - - - - - - -
24/08:30am 26.3 SE 14 18 1015.0 - 1.6 - - - - - - -
24/08:00am 26.0 ESE 12 17 1014.8 - 1.6 - - - - - - -
24/07:30am 25.5 ESE 11 18 1014.6 - 1.6 - - - - - - -
24/07:00am 25.4 ESE 14 22 1014.3 - 1.6 - - - - - - -
24/06:30am 24.8 SE 13 21 1014.0 - 1.6 - - - - - - -
24/06:00am 24.6 SSE 14 19 1013.7 - 1.6 Recent precip. - - - - - -
24/05:30am 24.5 SSE 14 22 1013.6 - 1.6 - - - - - - -
24/05:02am 25.1 SE 15 28 1013.6 - 0.2 - - - - - - -
24/05:00am 25.6 SSE 14 21 1013.6 - 0.0 - - - - - - -
24/04:30am 25.5 SE 13 20 1013.5 - 0.0 - - - - - - -
24/04:00am 25.4 SE 13 20 1013.4 - 0.0 - - - - - - -
24/03:30am 25.3 SE 13 20 1013.4 - 0.0 - - - - - - -
24/03:00am 25.3 SE 14 21 1013.5 - 0.0 - - - - - - -
24/02:30am 24.8 SE 14 20 1013.7 - 0.0 - - - - - - -
24/02:00am 25.7 SE 14 21 1013.8 - 0.0 - - - - - - -
24/01:30am 25.6 SE 15 21 1014.2 - 0.0 - - - - - - -
24/01:00am 25.7 SE 14 20 1014.5 - 0.0 - - - - - - -
24/12:30am 25.7 SE 13 19 1014.8 - 0.0 - - - - - - -
24/12:00am 25.8 SE 14 22 1015.0 - 0.0 - - - - - - -
 
Date/Time
EST
Temp
°C
Wind Pressure Rain since
9am
mm
Weather Cloud Vis
km
Sea
Height
m
Swell
Dir  Spd
kts
Gust
kts
hPa Trend Height
m
Period
s
Dir
23/11:30pm 25.8 SE 16 20 1015.0 - 0.0 - - - - - - -
23/11:00pm 25.8 SE 17 25 1015.1 - 0.0 - - - - - - -
23/10:30pm 25.8 ESE 15 23 1015.2 - 0.0 - - - - - - -
23/10:00pm 25.8 ESE 11 19 1015.1 - 0.0 - - - - - - -
23/09:30pm 25.5 ESE 10 16 1015.1 - 0.0 - - - - - - -
23/09:00pm 25.5 ESE 14 22 1015.0 - 0.0 - - - - - - -
23/08:30pm 25.5 ESE 15 22 1014.8 - 0.0 - - - - - - -
23/08:00pm 25.5 ESE 15 21 1014.6 - 0.0 - - - - - - -
23/07:30pm 25.5 ESE 14 20 1014.5 - 0.0 - - - - - - -
23/07:00pm 25.4 ESE 15 22 1014.2 - 0.0 - - - - - - -
23/06:30pm 25.6 SE 17 22 1014.1 - 0.0 - - - - - - -
23/06:00pm 25.9 SE 16 24 1013.8 - 0.0 - - - - - - -
23/05:30pm 26.3 SE 18 25 1013.5 - 0.0 - - - - - - -
23/05:00pm 26.7 SE 17 25 1013.2 - 0.0 - - - - - - -
23/04:52pm 26.8 SE 17 27 1013.1 - 0.0 - - - - - - -
23/04:30pm 27.3 SE 17 24 1013.1 - 0.0 - - - - - - -
23/04:00pm 27.8 SE 17 24 1013.1 - 0.0 - - - - - - -
23/03:30pm 27.5 SE 16 22 1013.3 - 0.0 - - - - - - -
23/03:00pm 27.8 SE 15 21 1013.6 - 0.0 - - - - - - -
23/02:30pm 27.4 SE 14 21 1013.8 - 0.0 - - - - - - -
23/02:00pm 27.8 SSE 14 22 1014.2 - 0.0 - - - - - - -
23/01:30pm 28.2 SSE 14 20 1014.2 - 0.0 - - - - - - -
23/01:00pm 27.7 SSE 18 23 1014.4 - 0.0 - - - - - - -
23/12:30pm 27.1 SSE 15 21 1014.8 - 0.0 - - - - - - -
23/12:00pm 27.4 SE 14 19 1015.1 - 0.0 - - - - - - -
23/11:30am 27.2 SE 16 22 1015.3 - 0.0 - - - - - - -
23/11:00am 26.6 SSE 15 23 1015.4 - 0.0 - - - - - - -
23/10:30am 28.0 SE 13 19 1015.8 - 0.0 - - - - - - -
23/10:00am 26.7 SE 15 21 1015.9 - 0.0 - - - - - - -
23/09:30am 26.0 SSE 15 23 1015.9 - 0.0 - - - - - - -
23/09:00am 26.0 SSE 16 22 1015.8 - 5.8 - - - - - - -
23/08:30am 26.4 SE 16 23 1015.7 - 5.8 - - - - - - -
23/08:00am 25.9 SE 15 25 1015.3 - 5.8 - - - - - - -
23/07:30am 25.9 SE 15 22 1015.0 - 5.8 - - - - - - -
23/07:00am 25.5 SE 16 23 1014.7 - 5.8 - - - - - - -
23/06:30am 25.3 SSE 15 22 1014.6 - 5.8 - - - - - - -
23/06:00am 25.3 SSE 16 23 1014.4 - 5.8 - - - - - - -
23/05:30am 25.2 SE 15 21 1014.3 - 5.8 - - - - - - -
23/05:00am 25.3 SE 17 22 1013.9 - 5.8 - - - - - - -
23/04:30am 25.4 SE 17 23 1013.8 - 5.8 - - - - - - -
23/04:00am 25.4 SE 16 26 1013.5 - 5.8 - - - - - - -
23/03:30am 25.4 SE 17 25 1013.3 - 5.8 - - - - - - -
23/03:00am 25.4 SE 17 25 1013.3 - 5.8 - - - - - - -
23/02:30am 25.4 SE 17 25 1013.4 - 5.8 - - - - - - -
23/02:00am 25.5 SE 18 24 1013.6 - 5.8 - - - - - - -
23/01:30am 25.5 SE 15 23 1014.0 - 5.8 - - - - - - -
23/01:00am 25.6 ESE 18 25 1014.2 - 5.8 - - - - - - -
23/12:30am 25.5 SE 17 26 1014.4 - 5.8 - - - - - - -
23/12:00am 25.5 SE 18 25 1014.6 - 5.8 - - - - - - -
 
Date/Time
EST
Temp
°C
Wind Pressure Rain since
9am
mm
Weather Cloud Vis
km
Sea
Height
m
Swell
Dir  Spd
kts
Gust
kts
hPa Trend Height
m
Period
s
Dir
22/11:30pm 25.6 SE 19 25 1014.8 - 5.8 - - - - - - -
22/11:00pm 25.6 ESE 19 26 1015.0 - 5.8 - - - - - - -
22/10:30pm 25.6 SE 19 26 1014.9 - 5.8 - - - - - - -
22/10:19pm 25.6 SE 17 27 1015.0 - 5.8 - - - - - - -
22/10:00pm 25.7 ESE 20 29 1015.0 - 5.8 - - - - - - -
22/09:30pm 25.6 SE 21 28 1014.8 - 5.8 - - - - - - -
22/09:00pm 25.5 SE 22 31 1014.4 - 5.8 - - - - - - -
22/08:30pm 25.4 SE 19 29 1014.2 - 5.8 - - - - - - -
22/08:00pm 25.0 ESE 16 27 1013.8 - 5.8 - - - - - - -
22/07:49pm 24.2 SE 16 26 1014.0 - 5.8 - - - - - - -
22/07:30pm 25.6 SE 19 25 1013.7 - 5.6 - - - - - - -
22/07:11pm 25.4 SE 20 30 1013.6 - 5.6 - - - - - - -
22/07:00pm 25.2 SE 19 29 1013.4 - 5.6 - - - - - - -
22/06:30pm 24.9 SE 15 23 1013.3 - 5.6 - - - - - - -
22/06:25pm 24.8 SE 14 23 1013.2 - 5.6 - - - - - - -
22/06:00pm 24.3 ESE 8 12 1013.2 - 5.6 Recent precip. - - - - - -
22/05:30pm 24.0 E 7 12 1013.3 - 5.6 - - - - - - -
22/05:00pm 24.5 ESE 6 12 1013.2 - 5.2 - - - - - - -
22/04:30pm 26.0 SE 15 22 1012.8 - 1.8 - - - - - - -
22/04:00pm 26.2 SE 15 21 1012.7 - 1.8 - - - - - - -
22/03:30pm 26.0 SE 12 20 1012.9 - 1.8 - - - - - - -
22/03:00pm 26.4 SSE 16 23 1012.8 - 1.8 - - - - - - -
22/02:30pm 26.0 SSE 14 20 1012.8 - 1.8 - - - - - - -
22/02:00pm 27.4 SE 13 19 1012.9 - 1.8 - - - - - - -
22/01:30pm 27.4 SE 17 21 1013.1 - 1.8 - - - - - - -
22/01:00pm 27.6 SSE 16 21 1013.4 - 1.8 - - - - - - -
22/12:30pm 27.8 SE 13 18 1013.9 - 1.8 - - - - - - -
22/12:00pm 26.5 SSE 12 17 1014.2 - 1.6 Recent precip. - - - - - -
22/11:30am 25.0 SSE 10 13 1014.5 - 1.6 - - - - - - -
22/11:00am 24.8 SSE 19 27 1014.5 - 1.4 - - - - - - -
22/10:44am 25.1 SSE 18 31 1014.4 - 0.2 - - - - - - -
22/10:30am 25.4 SSE 11 19 1014.9 - 0.2 - - - - - - -
22/10:00am 26.8 SSE 12 15 1015.2 - 0.0 - - - - - - -
22/09:30am 26.1 S 10 15 1015.3 - 0.0 - - - - - - -
22/09:00am 25.8 S 10 15 1015.2 - 6.6 - - - - - - -
22/08:30am 24.6 SSE 12 17 1015.1 - 6.6 - - - - - - -
22/08:00am 24.8 S 16 22 1015.0 - 6.6 - - - - - - -
22/07:30am 24.4 S 16 20 1014.8 - 6.6 - - - - - - -
22/07:19am 24.3 S 15 20 1014.7 - 6.6 - - - - - - -
22/07:00am 26.2 SE 6 9 1014.7 - 6.6 - - - - - - -
22/06:30am 25.6 E 5 8 1014.4 - 6.6 - - - - - - -
22/06:00am 24.8 E 6 7 1014.2 - 6.6 - - - - - - -
22/05:30am 24.5 E 6 9 1013.8 - 6.6 - - - - - - -
22/05:00am 24.6 E 7 10 1013.7 - 6.6 - - - - - - -
22/04:30am 23.6 E 9 25 1013.6 - 6.4 - - - - - - -
22/04:27am 23.3 E 11 25 1013.3 - 3.8 - - - - - - -
22/04:00am 25.6 ESE 4 7 1013.2 - 0.2 - - - - - - -
22/03:30am 25.4 ESE 5 8 1012.9 - 0.2 - - - - - - -
22/03:00am 25.4 E 5 9 1013.1 - 0.2 - - - - - - -
22/02:30am 25.5 E 5 8 1013.3 - 0.2 - - - - - - -
22/02:00am 25.3 ESE 6 12 1013.6 - 0.2 - - - - - - -
22/01:30am 25.4 ESE 5 9 1013.9 - 0.2 - - - - - - -
22/01:00am 25.3 E 5 10 1014.0 - 0.2 - - - - - - -
22/12:30am 26.0 E 6 12 1014.1 - 0.0 - - - - - - -
22/12:00am 26.0 E 6 10 1014.1 - 0.0 - - - - - - -
 
Date/Time
EST
Temp
°C
Wind Pressure Rain since
9am
mm
Weather Cloud Vis
km
Sea
Height
m
Swell
Dir  Spd
kts
Gust
kts
hPa Trend Height
m
Period
s
Dir
21/11:30pm 26.0 ESE 6 11 1014.3 - 0.0 - - - - - - -
21/11:00pm 26.1 ESE 7 13 1014.6 - 0.0 - - - - - - -
21/10:30pm 26.1 E 6 13 1014.5 - 0.0 - - - - - - -
21/10:00pm 26.1 E 5 12 1014.4 - 0.0 - - - - - - -
21/09:30pm 26.2 ESE 8 13 1014.4 - 0.0 - - - - - - -
21/09:00pm 26.3 ESE 11 17 1014.2 - 0.0 - - - - - - -
21/08:30pm 26.3 ESE 7 10 1014.0 - 0.0 - - - - - - -

Other Formats:

Comma delimited format used in spreadsheet applications
http://www.bom.gov.au/fwo/IDQ60701/IDQ60701.94372.axf

JavaScript Object Notation format (JSON) in row-major order
http://www.bom.gov.au/fwo/IDQ60701/IDQ60701.94372.json